createdAt,value
2023-04-19T00:00:45.637Z,99507.75
2023-04-19T00:03:18.351Z,99507.13
2023-04-19T00:05:46.097Z,99508.66
2023-04-19T00:08:13.200Z,99503.75
2023-04-19T00:10:40.656Z,99507.50
2023-04-19T00:13:08.026Z,99497.22
2023-04-19T00:15:35.616Z,99492.91
2023-04-19T00:18:03.586Z,99495.44
2023-04-19T00:20:31.102Z,99489.50
2023-04-19T00:22:59.139Z,99484.16
2023-04-19T00:25:27.046Z,99484.16
2023-04-19T00:27:54.142Z,99478.81
2023-04-19T00:30:21.690Z,99475.91
2023-04-19T00:32:49.498Z,99475.66
2023-04-19T00:35:17.495Z,99485.78
2023-04-19T00:37:44.571Z,99473.09
2023-04-19T00:40:14.409Z,99469.00
2023-04-19T00:42:42.602Z,99472.69
2023-04-19T00:45:11.273Z,99464.91
2023-04-19T00:47:39.082Z,99460.81
2023-04-19T00:50:07.701Z,99462.91
2023-04-19T00:52:35.315Z,99455.91
2023-04-19T00:55:05.620Z,99453.47
2023-04-19T00:57:32.790Z,99462.91
2023-04-19T01:00:00.351Z,99452.22
2023-04-19T01:02:28.538Z,99454.88
2023-04-19T01:04:56.463Z,99449.53
2023-04-19T01:07:23.648Z,99447.66
2023-04-19T01:09:51.713Z,99446.38
2023-04-19T01:12:22.980Z,99444.19
2023-04-19T01:14:51.029Z,99443.81
2023-04-19T01:17:19.661Z,99433.69
2023-04-19T01:19:47.267Z,99439.03
2023-04-19T01:22:23.090Z,99425.88
2023-04-19T01:24:51.264Z,99427.50
2023-04-19T01:27:19.930Z,99424.25
2023-04-19T01:29:47.473Z,99424.25
2023-04-19T01:32:14.553Z,99427.16
2023-04-19T01:34:42.811Z,99424.69
2023-04-19T01:37:09.960Z,99417.72
2023-04-19T01:39:37.420Z,99419.00
2023-04-19T01:42:04.603Z,99411.41
2023-04-19T01:44:32.199Z,99415.75
2023-04-19T01:47:00.532Z,99411.22
2023-04-19T01:49:27.991Z,99405.03
2023-04-19T01:51:55.304Z,99401.78
2023-04-19T01:54:22.745Z,99393.94
2023-04-19T01:56:50.656Z,99398.47
2023-04-19T01:59:18.188Z,99397.69
2023-04-19T02:01:45.923Z,99386.63
2023-04-19T02:04:13.516Z,99385.78
2023-04-19T02:06:40.946Z,99378.81
2023-04-19T02:09:08.464Z,99384.38
2023-04-19T02:11:35.612Z,99379.28
2023-04-19T02:14:03.088Z,99374.50
2023-04-19T02:16:30.387Z,99377.63
2023-04-19T02:18:58.681Z,99371.47
2023-04-19T02:21:26.036Z,99368.00
2023-04-19T02:23:53.476Z,99366.34
2023-04-19T02:26:21.653Z,99362.06
2023-04-19T02:28:52.412Z,99359.84
2023-04-19T02:31:19.731Z,99357.59
2023-04-19T02:33:47.243Z,99349.00
2023-04-19T02:36:14.571Z,99353.97
2023-04-19T02:38:42.043Z,99355.47
2023-04-19T02:41:09.316Z,99347.66
2023-04-19T02:43:40.116Z,99346.06
2023-04-19T02:46:07.468Z,99343.38
2023-04-19T02:48:34.824Z,99341.72
2023-04-19T02:51:02.192Z,99347.91
2023-04-19T02:53:29.669Z,99342.22
2023-04-19T02:55:57.009Z,99339.53
2023-04-19T02:58:24.529Z,99344.28
2023-04-19T03:01:04.926Z,99343.47
2023-04-19T03:03:32.475Z,99349.28
2023-04-19T03:05:59.711Z,99347.72
2023-04-19T03:08:28.502Z,99337.94
2023-04-19T03:10:56.066Z,99334.09
2023-04-19T03:13:23.446Z,99333.50
2023-04-19T03:15:51.015Z,99328.59
2023-04-19T03:18:22.423Z,99321.59
2023-04-19T03:20:50.474Z,99326.50
2023-04-19T03:23:18.057Z,99320.00
2023-04-19T03:25:46.553Z,99312.41
2023-04-19T03:28:25.403Z,99316.72
2023-04-19T03:31:12.632Z,99305.56
2023-04-19T03:33:40.840Z,99310.91
2023-04-19T03:36:09.393Z,99304.53
2023-04-19T03:38:38.678Z,99301.28
2023-04-19T03:41:26.144Z,99300.69
2023-04-19T03:44:17.600Z,99308.91
2023-04-19T03:46:46.473Z,99299.97
2023-04-19T03:49:16.153Z,99302.84
2023-04-19T03:51:46.661Z,99305.63
2023-04-19T03:54:14.176Z,99298.47
2023-04-19T03:56:41.404Z,99296.88
2023-04-19T03:59:10.037Z,99290.47
2023-04-19T04:01:42.456Z,99283.50
2023-04-19T04:04:12.134Z,99279.19
2023-04-19T04:06:40.212Z,99283.28
2023-04-19T04:09:07.689Z,99280.38
2023-04-19T04:11:35.521Z,99286.75
2023-04-19T04:14:04.033Z,99287.34
2023-04-19T04:16:33.642Z,99277.69
2023-04-19T04:19:01.039Z,99279.91
2023-04-19T04:21:30.614Z,99277.03
2023-04-19T04:24:02.341Z,99279.47
2023-04-19T04:26:49.868Z,99275.53
2023-04-19T04:29:21.477Z,99280.66
2023-04-19T04:31:51.371Z,99277.97
2023-04-19T04:34:22.780Z,99279.03
2023-04-19T04:36:55.773Z,99276.34
2023-04-19T04:39:24.217Z,99283.56
2023-04-19T04:41:53.126Z,99275.41
2023-04-19T04:44:20.779Z,99274.56
2023-04-19T04:46:48.542Z,99273.31
2023-04-19T04:49:21.557Z,99272.59
2023-04-19T04:51:48.737Z,99269.66
2023-04-19T04:54:16.638Z,99265.97
2023-04-19T04:56:44.419Z,99262.28
2023-04-19T04:59:12.809Z,99261.66
2023-04-19T05:01:44.099Z,99261.06
2023-04-19T05:04:12.144Z,99255.53
2023-04-19T05:06:41.058Z,99261.44
2023-04-19T05:09:11.183Z,99263.88
2023-04-19T05:11:40.224Z,99267.97
2023-04-19T05:14:07.621Z,99266.13
2023-04-19T05:16:35.188Z,99272.50
2023-04-19T05:19:03.960Z,99279.09
2023-04-19T05:21:35.339Z,99283.72
2023-04-19T05:24:05.527Z,99281.72
2023-04-19T05:26:34.753Z,99271.47
2023-04-19T05:29:03.925Z,99284.63
2023-04-19T05:32:00.291Z,99285.44
2023-04-19T05:34:34.509Z,99280.09
2023-04-19T05:37:03.659Z,99288.72
2023-04-19T05:39:31.119Z,99280.69
2023-04-19T05:41:59.321Z,99276.38
2023-04-19T05:44:26.689Z,99279.88
2023-04-19T05:46:54.147Z,99271.03
2023-04-19T05:49:43.328Z,99278.03
2023-04-19T05:52:26.519Z,99268.94
2023-04-19T05:54:56.333Z,99260.94
2023-04-19T05:57:23.444Z,99263.59
2023-04-19T05:59:50.779Z,99266.41
2023-04-19T06:02:22.432Z,99266.41
2023-04-19T06:04:50.257Z,99270.94
2023-04-19T06:07:30.853Z,99266.88
2023-04-19T06:10:00.344Z,99271.19
2023-04-19T06:12:28.447Z,99267.34
2023-04-19T06:14:56.059Z,99264.06
2023-04-19T06:17:25.602Z,99261.16
2023-04-19T06:19:54.241Z,99272.25
2023-04-19T06:22:21.609Z,99277.56
2023-04-19T06:24:49.582Z,99275.50
2023-04-19T06:27:17.417Z,99272.25
2023-04-19T06:29:44.890Z,99275.34
2023-04-19T06:32:12.234Z,99271.03
2023-04-19T06:34:39.626Z,99273.13
2023-04-19T06:37:07.000Z,99271.28
2023-04-19T06:39:35.441Z,99269.41
2023-04-19T06:42:03.677Z,99272.69
2023-04-19T06:44:31.037Z,99268.38
2023-04-19T06:46:58.190Z,99272.69
2023-04-19T06:49:25.603Z,99270.31
2023-04-19T06:51:53.267Z,99273.13
2023-04-19T06:54:21.102Z,99270.22
2023-04-19T06:56:50.116Z,99267.78
2023-04-19T06:59:20.885Z,99271.03
2023-04-19T07:01:48.922Z,99281.28
2023-04-19T07:04:18.233Z,99273.03
2023-04-19T07:06:49.838Z,99272.25
2023-04-19T07:09:17.559Z,99274.66
2023-04-19T07:11:44.583Z,99272.59
2023-04-19T07:14:12.202Z,99281.41
2023-04-19T07:16:39.442Z,99275.03
2023-04-19T07:19:06.874Z,99273.41
2023-04-19T07:21:35.077Z,99274.22
2023-04-19T07:24:02.551Z,99278.75
2023-04-19T07:26:29.837Z,99272.13
2023-04-19T07:28:58.195Z,99275.69
2023-04-19T07:31:25.727Z,99282.94
2023-04-19T07:33:53.948Z,99281.72
2023-04-19T07:36:21.502Z,99283.81
2023-04-19T07:38:48.892Z,99288.19
2023-04-19T07:41:16.186Z,99289.41
2023-04-19T07:43:43.673Z,99293.69
2023-04-19T07:46:35.398Z,99298.44
2023-04-19T07:49:03.461Z,99295.50
2023-04-19T07:51:31.523Z,99301.47
2023-04-19T07:53:59.153Z,99295.25
2023-04-19T07:56:27.060Z,99294.03
2023-04-19T07:59:06.944Z,99297.47
2023-04-19T08:01:36.040Z,99300.47
2023-04-19T08:04:04.048Z,99293.38
2023-04-19T08:06:32.457Z,99289.84
2023-04-19T08:09:00.129Z,99296.44
2023-04-19T08:11:27.330Z,99292.72
2023-04-19T08:14:06.785Z,99295.03
2023-04-19T08:19:19.835Z,99305.09
2023-04-19T08:21:46.893Z,99311.63
2023-04-19T08:24:14.536Z,99304.66
2023-04-19T08:26:42.343Z,99303.03
2023-04-19T08:29:09.992Z,99303.03
2023-04-19T08:31:37.560Z,99308.53
2023-04-19T08:34:05.078Z,99309.63
2023-04-19T08:36:39.158Z,99312.06
2023-04-19T08:39:15.069Z,99313.47
2023-04-19T08:41:59.078Z,99302.56
2023-04-19T08:44:36.844Z,99308.06
2023-04-19T08:47:07.650Z,99313.97
2023-04-19T08:49:36.957Z,99308.22
2023-04-19T08:52:06.240Z,99315.13
2023-04-19T08:54:36.355Z,99313.06
2023-04-19T08:57:03.659Z,99312.94
2023-04-19T08:59:30.965Z,99319.88
2023-04-19T09:02:04.216Z,99321.59
2023-04-19T09:04:37.024Z,99323.94
2023-04-19T09:07:05.031Z,99318.16
2023-04-19T09:09:39.178Z,99320.50
2023-04-19T09:12:18.548Z,99315.34
2023-04-19T09:15:00.467Z,99320.50
2023-04-19T09:17:29.438Z,99318.88
2023-04-19T09:19:58.033Z,99323.50
2023-04-19T09:22:26.106Z,99319.88
2023-04-19T09:27:33.703Z,99325.56
2023-04-19T09:30:04.245Z,99319.72
2023-04-19T09:32:48.255Z,99317.31
2023-04-19T09:35:16.516Z,99322.97
2023-04-19T09:40:25.031Z,99314.63
2023-04-19T09:48:07.990Z,99322.84
2023-04-19T09:53:20.187Z,99332.41
2023-04-19T09:55:57.713Z,99321.38
2023-04-19T09:58:34.258Z,99335.09
2023-04-19T10:01:15.106Z,99320.66
2023-04-19T10:03:49.708Z,99330.63
2023-04-19T10:08:53.093Z,99334.13
2023-04-19T10:11:22.485Z,99330.38
2023-04-19T10:13:56.185Z,99337.00
2023-04-19T10:16:24.769Z,99333.06
2023-04-19T10:18:53.902Z,99332.41
2023-04-19T10:21:22.196Z,99337.28
2023-04-19T10:23:50.140Z,99326.41
2023-04-19T10:26:17.618Z,99323.28
2023-04-19T10:28:44.813Z,99331.66
2023-04-19T10:31:13.625Z,99334.50
2023-04-19T10:33:42.157Z,99329.91
2023-04-19T10:36:14.228Z,99330.50
2023-04-19T10:38:55.617Z,99324.44
2023-04-19T10:41:23.730Z,99321.19
2023-04-19T10:43:57.606Z,99320.75
2023-04-19T10:46:26.167Z,99317.19
2023-04-19T10:49:06.361Z,99311.19
2023-04-19T10:51:36.464Z,99322.41
2023-04-19T10:54:05.362Z,99315.13
2023-04-19T10:56:35.878Z,99309.50
2023-04-19T10:59:02.964Z,99310.53
2023-04-19T11:01:39.680Z,99300.56
2023-04-19T11:04:24.012Z,99295.38
2023-04-19T11:06:54.277Z,99296.41
2023-04-19T11:09:27.194Z,99299.97
2023-04-19T11:12:01.052Z,99295.88
2023-04-19T11:14:39.836Z,99296.06
2023-04-19T11:17:27.443Z,99293.69
2023-04-19T11:20:02.962Z,99292.69
2023-04-19T11:22:45.103Z,99288.09
2023-04-19T11:25:21.745Z,99288.97
2023-04-19T11:27:52.957Z,99301.81
2023-04-19T11:30:28.164Z,99298.50
2023-04-19T11:32:57.544Z,99297.06
2023-04-19T11:35:28.604Z,99297.06
2023-04-19T11:37:59.013Z,99296.97
2023-04-19T11:40:26.892Z,99299.00
2023-04-19T11:43:00.232Z,99298.63
2023-04-19T11:45:38.196Z,99298.31
2023-04-19T11:48:13.932Z,99308.78
2023-04-19T11:50:45.926Z,99313.28
2023-04-19T11:53:21.022Z,99315.41
2023-04-19T11:56:09.460Z,99315.06
2023-04-19T11:58:48.265Z,99315.78
2023-04-19T12:01:24.587Z,99326.16
2023-04-19T12:03:55.491Z,99329.16
2023-04-19T12:06:28.047Z,99321.97
2023-04-19T12:08:56.808Z,99323.59
2023-04-19T12:11:41.738Z,99332.09
2023-04-19T12:14:14.523Z,99326.72
2023-04-19T12:16:42.737Z,99329.66
2023-04-19T12:19:20.567Z,99328.34
2023-04-19T12:21:48.232Z,99325.09
2023-04-19T12:24:16.818Z,99328.34
2023-04-19T12:26:56.825Z,99332.91
2023-04-19T12:29:24.637Z,99332.09
2023-04-19T12:31:51.826Z,99323.81
2023-04-19T12:34:19.294Z,99323.00
2023-04-19T12:36:46.292Z,99322.19
2023-04-19T12:39:14.032Z,99330.44
2023-04-19T12:41:41.288Z,99329.16
2023-04-19T12:44:08.791Z,99316.84
2023-04-19T12:46:36.641Z,99326.72
2023-04-19T12:49:04.153Z,99325.09
2023-04-19T12:51:31.784Z,99319.75
2023-04-19T12:53:59.817Z,99320.44
2023-04-19T12:56:27.095Z,99318.56
2023-04-19T12:58:54.695Z,99327.19
2023-04-19T13:01:21.945Z,99318.94
2023-04-19T13:03:49.639Z,99322.41
2023-04-19T13:06:17.260Z,99321.38
2023-04-19T13:08:47.337Z,99325.09
2023-04-19T13:11:17.716Z,99319.16
2023-04-19T13:13:45.052Z,99328.81
2023-04-19T13:16:12.186Z,99318.56
2023-04-19T13:18:39.641Z,99322.28
2023-04-19T13:21:08.056Z,99319.03
2023-04-19T13:23:36.388Z,99316.94
2023-04-19T13:26:03.803Z,99323.47
2023-04-19T13:28:31.258Z,99328.13
2023-04-19T13:30:58.452Z,99323.72
2023-04-19T13:33:26.857Z,99323.59
2023-04-19T13:35:53.971Z,99315.47
2023-04-19T13:38:22.769Z,99323.13
2023-04-19T13:40:49.869Z,99324.19
2023-04-19T13:43:17.301Z,99324.19
2023-04-19T13:45:44.513Z,99329.66
2023-04-19T13:48:11.888Z,99326.91
2023-04-19T13:50:39.151Z,99324.78
2023-04-19T13:53:07.055Z,99318.66
2023-04-19T13:55:34.467Z,99319.22
2023-04-19T13:58:02.048Z,99316.56
2023-04-19T14:00:29.499Z,99323.06
2023-04-19T14:02:57.072Z,99320.97
2023-04-19T14:05:24.407Z,99318.88
2023-04-19T14:07:52.394Z,99319.47
2023-04-19T14:10:19.786Z,99314.13
2023-04-19T14:12:47.933Z,99322.84
2023-04-19T14:15:15.501Z,99313.75
2023-04-19T14:17:42.989Z,99315.38
2023-04-19T14:20:11.050Z,99320.75
2023-04-19T14:22:39.522Z,99310.03
2023-04-19T14:25:07.265Z,99326.09
2023-04-19T14:27:34.892Z,99308.75
2023-04-19T14:30:02.281Z,99307.94
2023-04-19T14:32:29.796Z,99318.19
2023-04-19T14:34:56.999Z,99309.56
2023-04-19T14:37:24.950Z,99305.38
2023-04-19T14:39:52.721Z,99315.16
2023-04-19T14:42:22.659Z,99306.88
2023-04-19T14:44:53.130Z,99305.59
2023-04-19T14:47:21.404Z,99306.75
2023-04-19T14:49:48.933Z,99307.94
2023-04-19T14:52:16.957Z,99309.44
2023-04-19T14:54:44.198Z,99311.41
2023-04-19T14:57:12.037Z,99322.00
2023-04-19T14:59:39.239Z,99313.69
2023-04-19T15:02:07.233Z,99319.16
2023-04-19T15:04:37.341Z,99324.63
2023-04-19T15:07:07.293Z,99323.69
2023-04-19T15:09:34.608Z,99319.50
2023-04-19T15:12:02.176Z,99326.03
2023-04-19T15:14:29.389Z,99325.53
2023-04-19T15:16:56.816Z,99337.06
2023-04-19T15:19:23.992Z,99329.59
2023-04-19T15:21:51.429Z,99326.19
2023-04-19T15:24:18.558Z,99326.56
2023-04-19T15:26:45.993Z,99323.72
2023-04-19T15:29:13.514Z,99331.66
2023-04-19T15:31:40.869Z,99331.97
2023-04-19T15:34:08.103Z,99336.88
2023-04-19T15:36:35.664Z,99334.19
2023-04-19T15:39:03.327Z,99336.38
2023-04-19T15:41:30.673Z,99332.63
2023-04-19T15:43:57.980Z,99339.63
2023-04-19T15:46:25.590Z,99337.53
2023-04-19T15:48:52.796Z,99337.53
2023-04-19T15:51:20.309Z,99339.38
2023-04-19T15:53:47.358Z,99337.06
2023-04-19T15:56:14.967Z,99341.38
2023-04-19T15:58:42.210Z,99340.31
2023-04-19T16:01:13.280Z,99345.69
2023-04-19T16:03:41.324Z,99352.72
2023-04-19T16:06:09.696Z,99345.69
2023-04-19T16:08:37.171Z,99349.44
2023-04-19T16:11:06.121Z,99351.28
2023-04-19T16:13:33.450Z,99343.47
2023-04-19T16:16:01.635Z,99352.34
2023-04-19T16:18:28.952Z,99352.81
2023-04-19T16:20:56.279Z,99359.47
2023-04-19T16:23:24.880Z,99354.59
2023-04-19T16:25:53.755Z,99355.06
2023-04-19T16:28:22.210Z,99355.53
2023-04-19T16:30:49.542Z,99364.06
2023-04-19T16:33:16.930Z,99364.31
2023-04-19T16:35:44.765Z,99363.16
2023-04-19T16:38:11.923Z,99366.06
2023-04-19T16:40:39.321Z,99375.63
2023-04-19T16:43:06.673Z,99374.47
2023-04-19T16:45:34.282Z,99374.97
2023-04-19T16:48:01.417Z,99372.16
2023-04-19T16:50:29.976Z,99374.38
2023-04-19T16:52:57.114Z,99381.41
2023-04-19T16:55:24.528Z,99383.88
2023-04-19T16:57:53.676Z,99394.47
2023-04-19T17:00:22.826Z,99387.81
2023-04-19T17:02:50.308Z,99393.06
2023-04-19T17:05:17.871Z,99397.00
2023-04-19T17:07:44.989Z,99391.56
2023-04-19T17:10:13.178Z,99390.03
2023-04-19T17:12:41.070Z,99390.94
2023-04-19T17:15:09.306Z,99398.28
2023-04-19T17:17:36.655Z,99400.38
2023-04-19T17:20:06.047Z,99404.66
2023-04-19T17:22:33.225Z,99403.28
2023-04-19T17:25:00.612Z,99402.94
2023-04-19T17:27:27.801Z,99403.97
2023-04-19T17:29:55.147Z,99409.31
2023-04-19T17:32:22.307Z,99403.38
2023-04-19T17:34:49.928Z,99407.09
2023-04-19T17:37:17.076Z,99403.84
2023-04-19T17:39:44.395Z,99405.94
2023-04-19T17:42:11.627Z,99419.31
2023-04-19T17:44:38.949Z,99411.72
2023-04-19T17:47:06.454Z,99417.53
2023-04-19T17:49:33.983Z,99428.25
2023-04-19T17:52:01.041Z,99420.66
2023-04-19T17:54:28.349Z,99429.97
2023-04-19T17:56:55.588Z,99429.59
2023-04-19T17:59:23.171Z,99433.34
2023-04-19T18:01:50.325Z,99438.69
2023-04-19T18:04:20.137Z,99446.09
2023-04-19T18:06:47.388Z,99442.25
2023-04-19T18:09:17.035Z,99447.03
2023-04-19T18:11:45.115Z,99442.13
2023-04-19T18:14:12.488Z,99449.31
2023-04-19T18:16:39.619Z,99454.91
2023-04-19T18:19:07.079Z,99457.00
2023-04-19T18:21:34.173Z,99460.72
2023-04-19T18:24:01.663Z,99467.34
2023-04-19T18:26:43.317Z,99467.00
2023-04-19T18:29:13.251Z,99466.25
2023-04-19T18:31:40.478Z,99474.13
2023-04-19T18:34:08.327Z,99472.09
2023-04-19T18:36:36.249Z,99469.44
2023-04-19T18:39:03.650Z,99476.66
2023-04-19T18:41:31.060Z,99476.66
2023-04-19T18:46:29.555Z,99482.03
2023-04-19T18:48:57.013Z,99485.72
2023-04-19T18:51:24.183Z,99484.06
2023-04-19T18:53:51.821Z,99482.47
2023-04-19T18:56:19.277Z,99487.22
2023-04-19T18:58:47.130Z,99486.63
2023-04-19T19:01:14.456Z,99490.34
2023-04-19T19:04:07.848Z,99484.59
2023-04-19T19:06:29.612Z,99482.59
2023-04-19T19:08:57.173Z,99476.94
2023-04-19T19:13:54.456Z,99495.16
2023-04-19T19:16:21.664Z,99494.56
2023-04-19T19:18:49.181Z,99496.41
2023-04-19T19:21:16.441Z,99500.13
2023-04-19T19:23:44.036Z,99499.28
2023-04-19T19:26:14.330Z,99495.16
2023-04-19T19:28:42.157Z,99504.59
2023-04-19T19:31:09.752Z,99505.41
2023-04-19T19:33:40.419Z,99496.34
2023-04-19T19:36:07.920Z,99498.19
2023-04-19T19:38:38.254Z,99492.25
2023-04-19T19:43:36.636Z,99495.19
2023-04-19T19:46:03.868Z,99498.94
2023-04-19T19:48:37.106Z,99494.84
2023-04-19T19:51:41.707Z,99501.44
2023-04-19T19:53:54.828Z,99502.72
2023-04-19T19:56:24.286Z,99509.69
2023-04-19T19:58:52.458Z,99510.13
2023-04-19T20:01:22.516Z,99506.22
2023-04-19T20:03:51.113Z,99500.25
2023-04-19T20:07:03.434Z,99501.53
2023-04-19T20:09:05.879Z,99502.78
2023-04-19T20:11:32.982Z,99503.22
2023-04-19T20:14:00.694Z,99501.56
2023-04-19T20:16:28.999Z,99505.50
2023-04-19T20:18:57.837Z,99508.16
2023-04-19T20:21:24.996Z,99511.06
2023-04-19T20:23:53.980Z,99502.47
2023-04-19T20:26:21.085Z,99501.47
2023-04-19T20:28:49.243Z,99515.66
2023-04-19T20:31:16.649Z,99507.03
2023-04-19T20:33:46.034Z,99509.09
2023-04-19T20:36:14.436Z,99505.84
2023-04-19T20:38:42.473Z,99511.41
2023-04-19T20:41:09.755Z,99505.47
2023-04-19T20:43:37.237Z,99513.09
2023-04-19T20:46:04.340Z,99512.91
2023-04-19T20:48:31.669Z,99514.22
2023-04-19T20:50:58.830Z,99515.88
2023-04-19T20:53:26.362Z,99518.00
2023-04-19T20:55:53.451Z,99518.44
2023-04-19T20:58:20.774Z,99516.78
2023-04-19T21:00:49.892Z,99527.88
2023-04-19T21:03:17.350Z,99520.94
2023-04-19T21:05:44.658Z,99516.19
2023-04-19T21:08:12.081Z,99522.53
2023-04-19T21:10:39.091Z,99515.59
2023-04-19T21:13:06.434Z,99524.63
2023-04-19T21:15:33.555Z,99516.00
2023-04-19T21:18:00.903Z,99521.94
2023-04-19T21:20:28.164Z,99526.69
2023-04-19T21:22:55.450Z,99519.72
2023-04-19T21:25:22.844Z,99523.44
2023-04-19T21:27:50.241Z,99523.44
2023-04-19T21:30:17.435Z,99522.59
2023-04-19T21:32:44.811Z,99519.94
2023-04-19T21:35:12.036Z,99519.09
2023-04-19T21:37:39.528Z,99524.44
2023-04-19T21:40:07.475Z,99520.97
2023-04-19T21:42:35.925Z,99519.56
2023-04-19T21:45:03.446Z,99522.22
2023-04-19T21:47:31.865Z,99528.34
2023-04-19T21:49:59.067Z,99517.91
2023-04-19T21:52:26.754Z,99520.56
2023-04-19T21:54:53.814Z,99521.00
2023-04-19T21:57:24.387Z,99512.41
2023-04-19T21:59:51.529Z,99517.72
2023-04-19T22:02:19.496Z,99516.09
2023-04-19T22:04:46.771Z,99519.63
2023-04-19T22:07:14.125Z,99514.16
2023-04-19T22:09:41.435Z,99531.03
2023-04-19T22:12:09.817Z,99526.31
2023-04-19T22:14:37.393Z,99525.66
2023-04-19T22:17:05.813Z,99522.16
2023-04-19T22:19:32.900Z,99523.19
2023-04-19T22:22:00.261Z,99531.19
2023-04-19T22:24:27.402Z,99528.94
2023-04-19T22:26:54.686Z,99528.09
2023-04-19T22:29:21.992Z,99527.69
2023-04-19T22:31:49.412Z,99525.63
2023-04-19T22:34:16.690Z,99528.91
2023-04-19T22:36:44.095Z,99518.25
2023-04-19T22:39:11.728Z,99521.13
2023-04-19T22:41:39.147Z,99514.94
2023-04-19T22:44:06.273Z,99527.28
2023-04-19T22:46:33.829Z,99519.88
2023-04-19T22:49:04.405Z,99523.13
2023-04-19T22:51:34.069Z,99519.03
2023-04-19T22:54:03.863Z,99523.59
2023-04-19T22:56:31.269Z,99512.91
2023-04-19T22:58:58.390Z,99519.88
2023-04-19T23:01:26.130Z,99519.88
2023-04-19T23:03:53.293Z,99514.53
2023-04-19T23:06:20.778Z,99517.19
2023-04-19T23:08:47.808Z,99521.53
2023-04-19T23:11:15.392Z,99513.72
2023-04-19T23:13:42.453Z,99519.03
2023-04-19T23:16:11.086Z,99512.91
2023-04-19T23:18:41.217Z,99517.44
2023-04-19T23:21:08.995Z,99513.94
2023-04-19T23:23:36.951Z,99516.59
2023-04-19T23:26:04.439Z,99509.63
2023-04-19T23:28:31.727Z,99508.00
2023-04-19T23:30:59.184Z,99518.06
2023-04-19T23:33:26.309Z,99504.72
2023-04-19T23:35:53.642Z,99502.84
2023-04-19T23:38:20.835Z,99502.25
2023-04-19T23:40:48.527Z,99505.16
2023-04-19T23:43:15.927Z,99498.16
2023-04-19T23:45:43.383Z,99500.63
2023-04-19T23:48:10.633Z,99512.56
2023-04-19T23:50:38.032Z,99509.28
2023-04-19T23:53:05.544Z,99504.75
2023-04-19T23:55:32.892Z,99497.56
2023-04-19T23:58:00.043Z,99494.91
